sensor_id;sensor_type;location;lat;lon;timestamp;pressure;altitude;pressure_sealevel;temperature;humidity
5146;BME280;2591;48.144;15.152;2023-02-26T00:01:38;76273.94;;;-144.65;100.00
5146;BME280;2591;48.144;15.152;2023-02-26T00:04:06;76273.94;;;-144.65;100.00
5146;BME280;2591;48.144;15.152;2023-02-26T00:06:36;76280.06;;;-144.65;100.00
5146;BME280;2591;48.144;15.152;2023-02-26T00:09:04;76288.22;;;-144.65;100.00
5146;BME280;2591;48.144;15.152;2023-02-26T00:11:33;76290.25;;;-144.65;100.00
5146;BME280;2591;48.144;15.152;2023-02-26T00:14:01;76292.28;;;-144.65;100.00
5146;BME280;2591;48.144;15.152;2023-02-26T00:16:32;76292.28;;;-144.65;100.00
5146;BME280;2591;48.144;15.152;2023-02-26T00:19:04;76298.41;;;-144.65;100.00
5146;BME280;2591;48.144;15.152;2023-02-26T00:21:33;76296.38;;;-144.65;100.00
5146;BME280;2591;48.144;15.152;2023-02-26T00:24:03;76290.25;;;-144.65;100.00
5146;BME280;2591;48.144;15.152;2023-02-26T00:26:33;76292.28;;;-144.65;100.00
5146;BME280;2591;48.144;15.152;2023-02-26T00:29:02;76294.34;;;-144.65;100.00
5146;BME280;2591;48.144;15.152;2023-02-26T00:31:33;76294.34;;;-144.65;100.00
5146;BME280;2591;48.144;15.152;2023-02-26T00:34:02;76294.34;;;-144.65;100.00
5146;BME280;2591;48.144;15.152;2023-02-26T00:36:36;76290.25;;;-144.65;100.00
5146;BME280;2591;48.144;15.152;2023-02-26T00:39:14;76292.28;;;-144.65;100.00
5146;BME280;2591;48.144;15.152;2023-02-26T00:41:48;76294.34;;;-144.65;100.00
5146;BME280;2591;48.144;15.152;2023-02-26T00:44:17;76294.34;;;-144.65;100.00
5146;BME280;2591;48.144;15.152;2023-02-26T00:46:50;76302.50;;;-144.65;100.00
5146;BME280;2591;48.144;15.152;2023-02-26T00:49:30;76298.41;;;-144.65;100.00
5146;BME280;2591;48.144;15.152;2023-02-26T00:52:11;76294.34;;;-144.65;100.00
5146;BME280;2591;48.144;15.152;2023-02-26T00:54:40;76302.50;;;-144.65;100.00
5146;BME280;2591;48.144;15.152;2023-02-26T00:57:08;76306.56;;;-144.65;100.00
5146;BME280;2591;48.144;15.152;2023-02-26T00:59:36;76310.66;;;-144.65;100.00
5146;BME280;2591;48.144;15.152;2023-02-26T01:02:05;76314.72;;;-144.65;100.00
5146;BME280;2591;48.144;15.152;2023-02-26T01:04:33;76324.91;;;-144.65;100.00
5146;BME280;2591;48.144;15.152;2023-02-26T01:07:01;76331.03;;;-144.65;100.00
5146;BME280;2591;48.144;15.152;2023-02-26T01:09:31;76322.88;;;-144.65;100.00
5146;BME280;2591;48.144;15.152;2023-02-26T01:12:03;76331.03;;;-144.65;100.00
5146;BME280;2591;48.144;15.152;2023-02-26T01:14:32;76326.97;;;-144.65;100.00
5146;BME280;2591;48.144;15.152;2023-02-26T01:17:02;76316.75;;;-144.65;100.00
5146;BME280;2591;48.144;15.152;2023-02-26T01:19:40;76322.88;;;-144.65;100.00
5146;BME280;2591;48.144;15.152;2023-02-26T01:22:14;76326.97;;;-144.65;100.00
5146;BME280;2591;48.144;15.152;2023-02-26T01:24:46;76331.03;;;-144.65;100.00
5146;BME280;2591;48.144;15.152;2023-02-26T01:27:15;76339.19;;;-144.65;100.00
5146;BME280;2591;48.144;15.152;2023-02-26T01:29:43;76357.53;;;-144.65;100.00
5146;BME280;2591;48.144;15.152;2023-02-26T01:32:16;76355.50;;;-144.65;100.00
5146;BME280;2591;48.144;15.152;2023-02-26T01:34:57;76377.94;;;-144.65;100.00
5146;BME280;2591;48.144;15.152;2023-02-26T01:37:30;76388.13;;;-144.65;97.16
5146;BME280;2591;48.144;15.152;2023-02-26T01:40:21;76398.31;;;-144.65;93.02
5146;BME280;2591;48.144;15.152;2023-02-26T01:42:58;76386.09;;;-144.65;89.61
5146;BME280;2591;48.144;15.152;2023-02-26T01:45:32;76394.25;;;-144.65;88.06
5146;BME280;2591;48.144;15.152;2023-02-26T01:48:04;76394.25;;;-144.65;87.24
5146;BME280;2591;48.144;15.152;2023-02-26T01:50:36;76404.44;;;-144.65;86.44
5146;BME280;2591;48.144;15.152;2023-02-26T01:53:23;76408.53;;;-144.65;85.39
5146;BME280;2591;48.144;15.152;2023-02-26T01:55:55;76404.44;;;-144.65;85.14
5146;BME280;2591;48.144;15.152;2023-02-26T01:58:24;76400.38;;;-144.65;83.24
5146;BME280;2591;48.144;15.152;2023-02-26T02:00:54;76428.91;;;-144.65;83.56
5146;BME280;2591;48.144;15.152;2023-02-26T02:03:23;76424.84;;;-144.65;82.75
5146;BME280;2591;48.144;15.152;2023-02-26T02:05:56;76428.91;;;-144.65;82.68
5146;BME280;2591;48.144;15.152;2023-02-26T02:08:25;76428.91;;;-144.65;81.73
5146;BME280;2591;48.144;15.152;2023-02-26T02:10:53;76432.97;;;-144.65;79.98
5146;BME280;2591;48.144;15.152;2023-02-26T02:13:30;76426.88;;;-144.65;79.10
5146;BME280;2591;48.144;15.152;2023-02-26T02:16:11;76424.84;;;-144.65;79.05
5146;BME280;2591;48.144;15.152;2023-02-26T02:18:48;76424.84;;;-144.65;78.89
5146;BME280;2591;48.144;15.152;2023-02-26T02:21:47;76428.91;;;-144.65;79.58
5146;BME280;2591;48.144;15.152;2023-02-26T02:24:26;76441.16;;;-144.65;79.77
5146;BME280;2591;48.144;15.152;2023-02-26T02:27:02;76449.28;;;-144.65;79.46
5146;BME280;2591;48.144;15.152;2023-02-26T02:29:50;76453.38;;;-144.65;80.43
5146;BME280;2591;48.144;15.152;2023-02-26T02:32:25;76453.38;;;-144.65;80.45
5146;BME280;2591;48.144;15.152;2023-02-26T02:35:00;76471.72;;;-144.65;80.49
5146;BME280;2591;48.144;15.152;2023-02-26T02:37:35;76461.53;;;-144.65;79.83
5146;BME280;2591;48.144;15.152;2023-02-26T02:40:05;76477.84;;;-144.65;80.51
5146;BME280;2591;48.144;15.152;2023-02-26T02:42:39;76473.75;;;-144.65;80.69
5146;BME280;2591;48.144;15.152;2023-02-26T02:45:13;76486.00;;;-144.65;80.72
5146;BME280;2591;48.144;15.152;2023-02-26T02:47:46;76479.88;;;-144.65;81.36
5146;BME280;2591;48.144;15.152;2023-02-26T02:50:20;76465.63;;;-144.65;80.76
5146;BME280;2591;48.144;15.152;2023-02-26T02:52:53;76465.63;;;-144.65;80.39
5146;BME280;2591;48.144;15.152;2023-02-26T02:55:25;76457.44;;;-144.65;79.20
5146;BME280;2591;48.144;15.152;2023-02-26T02:57:57;76455.41;;;-144.65;78.52
5146;BME280;2591;48.144;15.152;2023-02-26T03:00:27;76449.28;;;-144.65;77.51
5146;BME280;2591;48.144;15.152;2023-02-26T03:03:02;76455.41;;;-144.65;76.73
5146;BME280;2591;48.144;15.152;2023-02-26T03:05:32;76449.28;;;-144.65;76.40
5146;BME280;2591;48.144;15.152;2023-02-26T03:08:04;76451.34;;;-144.65;76.20
5146;BME280;2591;48.144;15.152;2023-02-26T03:10:33;76453.38;;;-144.65;75.08
5146;BME280;2591;48.144;15.152;2023-02-26T03:13:02;76455.41;;;-144.65;74.31
5146;BME280;2591;48.144;15.152;2023-02-26T03:15:36;76428.91;;;-144.65;72.90
5146;BME280;2591;48.144;15.152;2023-02-26T03:18:13;76445.22;;;-144.65;72.38
5146;BME280;2591;48.144;15.152;2023-02-26T03:20:53;76449.28;;;-144.65;72.33
5146;BME280;2591;48.144;15.152;2023-02-26T03:23:26;76449.28;;;-144.65;71.96
5146;BME280;2591;48.144;15.152;2023-02-26T03:26:03;76453.38;;;-144.65;72.08
5146;BME280;2591;48.144;15.152;2023-02-26T03:28:40;76416.69;;;-144.65;69.68
5146;BME280;2591;48.144;15.152;2023-02-26T03:31:15;76432.97;;;-144.65;70.67
5146;BME280;2591;48.144;15.152;2023-02-26T03:33:51;76445.22;;;-144.65;71.57
5146;BME280;2591;48.144;15.152;2023-02-26T03:36:23;76437.06;;;-144.65;71.35
5146;BME280;2591;48.144;15.152;2023-02-26T03:38:57;76465.63;;;-144.65;72.81
5146;BME280;2591;48.144;15.152;2023-02-26T03:41:29;76455.41;;;-144.65;72.29
5146;BME280;2591;48.144;15.152;2023-02-26T03:44:02;76449.28;;;-144.65;72.32
5146;BME280;2591;48.144;15.152;2023-02-26T03:46:34;76465.63;;;-144.65;73.57
5146;BME280;2591;48.144;15.152;2023-02-26T03:49:10;76471.72;;;-144.65;74.45
5146;BME280;2591;48.144;15.152;2023-02-26T03:51:40;76486.00;;;-144.65;74.45
5146;BME280;2591;48.144;15.152;2023-02-26T03:54:14;76486.00;;;-144.65;74.34
5146;BME280;2591;48.144;15.152;2023-02-26T03:56:45;76477.84;;;-144.65;73.65
5146;BME280;2591;48.144;15.152;2023-02-26T03:59:15;76488.03;;;-144.65;74.36
5146;BME280;2591;48.144;15.152;2023-02-26T04:01:47;76498.22;;;-144.65;75.62
5146;BME280;2591;48.144;15.152;2023-02-26T04:04:21;76504.34;;;-144.65;76.80
5146;BME280;2591;48.144;15.152;2023-02-26T04:06:51;76508.44;;;-144.65;77.45
5146;BME280;2591;48.144;15.152;2023-02-26T04:09:21;76512.50;;;-144.65;77.99
5146;BME280;2591;48.144;15.152;2023-02-26T04:11:50;76514.53;;;-144.65;78.30
5146;BME280;2591;48.144;15.152;2023-02-26T04:14:19;76510.47;;;-144.65;78.48
5146;BME280;2591;48.144;15.152;2023-02-26T04:16:47;76514.53;;;-144.65;78.56
5146;BME280;2591;48.144;15.152;2023-02-26T04:19:15;76510.47;;;-144.65;77.48
5146;BME280;2591;48.144;15.152;2023-02-26T04:21:44;76510.47;;;-144.65;77.42
5146;BME280;2591;48.144;15.152;2023-02-26T04:24:13;76504.34;;;-144.65;77.35
5146;BME280;2591;48.144;15.152;2023-02-26T04:26:41;76506.38;;;-144.65;78.19
5146;BME280;2591;48.144;15.152;2023-02-26T04:29:08;76514.53;;;-144.65;79.33
5146;BME280;2591;48.144;15.152;2023-02-26T04:31:37;76514.53;;;-144.65;79.25
5146;BME280;2591;48.144;15.152;2023-02-26T04:34:05;76510.47;;;-144.65;78.86
5146;BME280;2591;48.144;15.152;2023-02-26T04:36:33;76514.53;;;-144.65;78.83
5146;BME280;2591;48.144;15.152;2023-02-26T04:39:02;76514.53;;;-144.65;78.79
5146;BME280;2591;48.144;15.152;2023-02-26T04:41:30;76514.53;;;-144.65;78.96
5146;BME280;2591;48.144;15.152;2023-02-26T04:43:58;76510.47;;;-144.65;79.05
5146;BME280;2591;48.144;15.152;2023-02-26T04:46:26;76518.63;;;-144.65;78.88
5146;BME280;2591;48.144;15.152;2023-02-26T04:48:54;76522.69;;;-144.65;79.27
5146;BME280;2591;48.144;15.152;2023-02-26T04:51:22;76526.78;;;-144.65;78.92
5146;BME280;2591;48.144;15.152;2023-02-26T04:53:50;76530.84;;;-144.65;79.25
5146;BME280;2591;48.144;15.152;2023-02-26T04:56:19;76539.00;;;-144.65;79.38
5146;BME280;2591;48.144;15.152;2023-02-26T04:58:47;76547.16;;;-144.65;79.62
5146;BME280;2591;48.144;15.152;2023-02-26T05:01:15;76547.16;;;-144.65;79.41
5146;BME280;2591;48.144;15.152;2023-02-26T05:03:43;76559.41;;;-144.65;78.51
5146;BME280;2591;48.144;15.152;2023-02-26T05:06:11;76559.41;;;-144.65;78.74
5146;BME280;2591;48.144;15.152;2023-02-26T05:08:38;76565.53;;;-144.65;79.86
5146;BME280;2591;48.144;15.152;2023-02-26T05:11:09;76573.69;;;-144.65;81.59
5146;BME280;2591;48.144;15.152;2023-02-26T05:13:38;76575.72;;;-144.65;83.19
5146;BME280;2591;48.144;15.152;2023-02-26T05:16:06;76577.75;;;-144.65;84.87
5146;BME280;2591;48.144;15.152;2023-02-26T05:18:34;76575.72;;;-144.65;86.79
5146;BME280;2591;48.144;15.152;2023-02-26T05:21:03;76583.88;;;-144.65;88.42
5146;BME280;2591;48.144;15.152;2023-02-26T05:23:31;76587.94;;;-144.65;89.86
5146;BME280;2591;48.144;15.152;2023-02-26T05:25:59;76583.88;;;-144.65;90.95
5146;BME280;2591;48.144;15.152;2023-02-26T05:28:27;76587.94;;;-144.65;91.85
5146;BME280;2591;48.144;15.152;2023-02-26T05:30:56;76594.06;;;-144.65;91.92
5146;BME280;2591;48.144;15.152;2023-02-26T05:33:25;76600.19;;;-144.65;91.54
5146;BME280;2591;48.144;15.152;2023-02-26T05:35:53;76604.28;;;-144.65;91.26
5146;BME280;2591;48.144;15.152;2023-02-26T05:38:22;76604.28;;;-144.65;91.46
5146;BME280;2591;48.144;15.152;2023-02-26T05:40:50;76606.31;;;-144.65;91.62
5146;BME280;2591;48.144;15.152;2023-02-26T05:43:22;76608.34;;;-144.65;91.21
5146;BME280;2591;48.144;15.152;2023-02-26T05:45:50;76612.41;;;-144.65;90.79
5146;BME280;2591;48.144;15.152;2023-02-26T05:48:20;76612.41;;;-144.65;90.53
5146;BME280;2591;48.144;15.152;2023-02-26T05:50:49;76612.41;;;-144.65;89.95
5146;BME280;2591;48.144;15.152;2023-02-26T05:53:17;76612.41;;;-144.65;89.78
5146;BME280;2591;48.144;15.152;2023-02-26T05:55:45;76620.56;;;-144.65;90.39
5146;BME280;2591;48.144;15.152;2023-02-26T05:58:13;76626.69;;;-144.65;91.12
5146;BME280;2591;48.144;15.152;2023-02-26T06:00:41;76634.84;;;-144.65;91.81
5146;BME280;2591;48.144;15.152;2023-02-26T06:03:09;76640.97;;;-144.65;92.05
5146;BME280;2591;48.144;15.152;2023-02-26T06:05:38;76640.97;;;-144.65;92.52
5146;BME280;2591;48.144;15.152;2023-02-26T06:08:06;76640.97;;;-144.65;93.04
5146;BME280;2591;48.144;15.152;2023-02-26T06:10:34;76634.84;;;-144.65;93.25
5146;BME280;2591;48.144;15.152;2023-02-26T06:13:01;76647.09;;;-144.65;93.26
5146;BME280;2591;48.144;15.152;2023-02-26T06:15:29;76657.28;;;-144.65;93.32
5146;BME280;2591;48.144;15.152;2023-02-26T06:17:57;76663.41;;;-144.65;93.25
5146;BME280;2591;48.144;15.152;2023-02-26T06:20:25;76665.44;;;-144.65;93.47
5146;BME280;2591;48.144;15.152;2023-02-26T06:22:54;76669.53;;;-144.65;93.80
5146;BME280;2591;48.144;15.152;2023-02-26T06:25:22;76673.59;;;-144.65;94.45
5146;BME280;2591;48.144;15.152;2023-02-26T06:27:50;76673.59;;;-144.65;95.17
5146;BME280;2591;48.144;15.152;2023-02-26T06:30:18;76673.59;;;-144.65;95.22
5146;BME280;2591;48.144;15.152;2023-02-26T06:32:46;76675.63;;;-144.65;95.32
5146;BME280;2591;48.144;15.152;2023-02-26T06:35:14;76685.81;;;-144.65;94.58
5146;BME280;2591;48.144;15.152;2023-02-26T06:37:41;76687.88;;;-144.65;93.89
5146;BME280;2591;48.144;15.152;2023-02-26T06:40:13;76702.16;;;-144.65;92.71
5146;BME280;2591;48.144;15.152;2023-02-26T06:42:42;76706.22;;;-144.65;92.43
5146;BME280;2591;48.144;15.152;2023-02-26T06:45:10;76702.16;;;-144.65;92.39
5146;BME280;2591;48.144;15.152;2023-02-26T06:47:38;76685.81;;;-144.65;93.40
5146;BME280;2591;48.144;15.152;2023-02-26T06:50:07;76689.91;;;-144.65;94.17
5146;BME280;2591;48.144;15.152;2023-02-26T06:52:35;76677.69;;;-144.65;94.48
5146;BME280;2591;48.144;15.152;2023-02-26T06:55:04;76677.69;;;-144.65;94.76
5146;BME280;2591;48.144;15.152;2023-02-26T06:57:33;76671.56;;;-144.65;95.22
5146;BME280;2591;48.144;15.152;2023-02-26T07:00:01;76669.53;;;-144.65;95.75
5146;BME280;2591;48.144;15.152;2023-02-26T07:02:29;76665.44;;;-144.65;96.03
5146;BME280;2591;48.144;15.152;2023-02-26T07:04:57;76657.28;;;-144.65;95.68
5146;BME280;2591;48.144;15.152;2023-02-26T07:07:25;76663.41;;;-144.65;95.10
5146;BME280;2591;48.144;15.152;2023-02-26T07:09:53;76661.38;;;-144.65;95.31
5146;BME280;2591;48.144;15.152;2023-02-26T07:12:21;76653.19;;;-144.65;95.30
5146;BME280;2591;48.144;15.152;2023-02-26T07:14:50;76653.19;;;-144.65;94.82
5146;BME280;2591;48.144;15.152;2023-02-26T07:17:17;76653.19;;;-144.65;95.08
5146;BME280;2591;48.144;15.152;2023-02-26T07:19:48;76661.38;;;-144.65;95.22
5146;BME280;2591;48.144;15.152;2023-02-26T07:22:17;76653.19;;;-144.65;95.45
5146;BME280;2591;48.144;15.152;2023-02-26T07:24:47;76653.19;;;-144.65;95.46
5146;BME280;2591;48.144;15.152;2023-02-26T07:27:15;76645.03;;;-144.65;95.37
5146;BME280;2591;48.144;15.152;2023-02-26T07:29:43;76647.09;;;-144.65;95.21
5146;BME280;2591;48.144;15.152;2023-02-26T07:32:12;76643.00;;;-144.65;95.24
5146;BME280;2591;48.144;15.152;2023-02-26T07:34:40;76655.25;;;-144.65;94.80
5146;BME280;2591;48.144;15.152;2023-02-26T07:37:08;76667.47;;;-144.65;94.29
5146;BME280;2591;48.144;15.152;2023-02-26T07:39:36;76677.69;;;-144.65;93.99
5146;BME280;2591;48.144;15.152;2023-02-26T07:42:04;76685.81;;;-144.65;93.32
5146;BME280;2591;48.144;15.152;2023-02-26T07:44:31;76710.31;;;-144.65;92.92
5146;BME280;2591;48.144;15.152;2023-02-26T07:46:59;76791.88;;;-144.65;97.61
5146;BME280;2591;48.144;15.152;2023-02-26T07:49:28;76836.72;;;-144.65;100.00
5146;BME280;2591;48.144;15.152;2023-02-26T07:51:58;76828.56;;;-144.65;100.00
5146;BME280;2591;48.144;15.152;2023-02-26T07:54:26;76836.72;;;-144.65;100.00
5146;BME280;2591;48.144;15.152;2023-02-26T07:56:54;76820.41;;;-144.65;100.00
5146;BME280;2591;48.144;15.152;2023-02-26T07:59:22;76804.09;;;-144.65;100.00
5146;BME280;2591;48.144;15.152;2023-02-26T08:01:50;76800.03;;;-144.65;100.00
5146;BME280;2591;48.144;15.152;2023-02-26T08:04:18;76800.03;;;-144.65;100.00
5146;BME280;2591;48.144;15.152;2023-02-26T08:06:47;76804.09;;;-144.65;100.00
5146;BME280;2591;48.144;15.152;2023-02-26T08:09:15;76816.34;;;-144.65;100.00
5146;BME280;2591;48.144;15.152;2023-02-26T08:11:43;76814.31;;;-144.65;100.00
5146;BME280;2591;48.144;15.152;2023-02-26T08:14:10;76812.25;;;-144.65;100.00
5146;BME280;2591;48.144;15.152;2023-02-26T08:16:39;76806.13;;;-144.65;100.00
5146;BME280;2591;48.144;15.152;2023-02-26T08:19:07;76812.25;;;-144.65;100.00
5146;BME280;2591;48.144;15.152;2023-02-26T08:21:35;76804.09;;;-144.65;100.00
5146;BME280;2591;48.144;15.152;2023-02-26T08:24:05;76800.03;;;-144.65;100.00
5146;BME280;2591;48.144;15.152;2023-02-26T08:26:34;76804.09;;;-144.65;100.00
5146;BME280;2591;48.144;15.152;2023-02-26T08:29:03;76800.03;;;-144.65;100.00
5146;BME280;2591;48.144;15.152;2023-02-26T08:31:31;76802.06;;;-144.65;100.00
5146;BME280;2591;48.144;15.152;2023-02-26T08:34:00;76800.03;;;-144.65;100.00
5146;BME280;2591;48.144;15.152;2023-02-26T08:36:28;76806.13;;;-144.65;100.00
5146;BME280;2591;48.144;15.152;2023-02-26T08:38:56;76810.22;;;-144.65;100.00
5146;BME280;2591;48.144;15.152;2023-02-26T08:41:25;76812.25;;;-144.65;100.00
5146;BME280;2591;48.144;15.152;2023-02-26T08:43:55;76808.19;;;-144.65;100.00
5146;BME280;2591;48.144;15.152;2023-02-26T08:46:23;76808.19;;;-144.65;100.00
5146;BME280;2591;48.144;15.152;2023-02-26T08:48:52;76816.34;;;-144.65;100.00
5146;BME280;2591;48.144;15.152;2023-02-26T08:51:20;76816.34;;;-144.65;100.00
5146;BME280;2591;48.144;15.152;2023-02-26T08:53:48;76826.53;;;-144.65;100.00
5146;BME280;2591;48.144;15.152;2023-02-26T08:56:17;76828.56;;;-144.65;100.00
5146;BME280;2591;48.144;15.152;2023-02-26T08:58:46;76836.72;;;-144.65;100.00
5146;BME280;2591;48.144;15.152;2023-02-26T09:01:14;76846.94;;;-144.65;100.00
5146;BME280;2591;48.144;15.152;2023-02-26T09:03:41;76848.97;;;-144.65;100.00
5146;BME280;2591;48.144;15.152;2023-02-26T09:06:09;76857.13;;;-144.65;100.00
5146;BME280;2591;48.144;15.152;2023-02-26T09:08:37;76865.28;;;-144.65;100.00
5146;BME280;2591;48.144;15.152;2023-02-26T09:11:05;76865.28;;;-144.65;100.00
5146;BME280;2591;48.144;15.152;2023-02-26T09:13:33;76865.28;;;-144.65;100.00
5146;BME280;2591;48.144;15.152;2023-02-26T09:16:02;76873.44;;;-144.65;100.00
5146;BME280;2591;48.144;15.152;2023-02-26T09:18:30;76867.31;;;-144.65;100.00
5146;BME280;2591;48.144;15.152;2023-02-26T09:20:58;76873.44;;;-144.65;100.00
5146;BME280;2591;48.144;15.152;2023-02-26T09:23:26;76873.44;;;-144.65;100.00
5146;BME280;2591;48.144;15.152;2023-02-26T09:25:54;76861.19;;;-144.65;100.00
5146;BME280;2591;48.144;15.152;2023-02-26T09:28:24;76853.03;;;-144.65;100.00
5146;BME280;2591;48.144;15.152;2023-02-26T09:30:52;76838.78;;;-144.65;100.00
5146;BME280;2591;48.144;15.152;2023-02-26T09:33:22;76820.41;;;-144.65;100.00
5146;BME280;2591;48.144;15.152;2023-02-26T09:35:50;76812.25;;;-144.65;100.00
5146;BME280;2591;48.144;15.152;2023-02-26T09:38:18;76791.88;;;-144.65;100.00
5146;BME280;2591;48.144;15.152;2023-02-26T09:40:49;76779.63;;;-144.65;100.00
5146;BME280;2591;48.144;15.152;2023-02-26T09:43:48;76773.50;;;-144.65;100.00
5146;BME280;2591;48.144;15.152;2023-02-26T09:46:29;76763.31;;;-144.65;100.00
5146;BME280;2591;48.144;15.152;2023-02-26T09:49:08;76755.16;;;-144.65;100.00
5146;BME280;2591;48.144;15.152;2023-02-26T09:51:41;76755.16;;;-144.65;100.00
5146;BME280;2591;48.144;15.152;2023-02-26T09:54:15;76712.34;;;-144.65;100.00
5146;BME280;2591;48.144;15.152;2023-02-26T09:56:44;76653.19;;;-144.65;100.00
5146;BME280;2591;48.144;15.152;2023-02-26T09:59:12;76587.94;;;-144.65;100.00
5146;BME280;2591;48.144;15.152;2023-02-26T10:01:47;76541.06;;;-144.65;100.00
5146;BME280;2591;48.144;15.152;2023-02-26T10:04:25;76473.75;;;-144.65;100.00
5146;BME280;2591;48.144;15.152;2023-02-26T10:07:05;76424.84;;;-144.65;98.91
5146;BME280;2591;48.144;15.152;2023-02-26T10:09:47;76412.59;;;-144.65;94.20
5146;BME280;2591;48.144;15.152;2023-02-26T10:12:20;76412.59;;;-144.65;89.83
5146;BME280;2591;48.144;15.152;2023-02-26T10:14:52;76432.97;;;-144.65;87.91
5146;BME280;2591;48.144;15.152;2023-02-26T10:17:25;76441.16;;;-144.65;86.51
5146;BME280;2591;48.144;15.152;2023-02-26T10:19:58;76469.69;;;-144.65;86.66
5146;BME280;2591;48.144;15.152;2023-02-26T10:22:31;76494.16;;;-144.65;87.25
5146;BME280;2591;48.144;15.152;2023-02-26T10:25:05;76449.28;;;-144.65;87.98
5146;BME280;2591;48.144;15.152;2023-02-26T10:27:44;76449.28;;;-144.65;88.67
5146;BME280;2591;48.144;15.152;2023-02-26T10:30:20;76457.44;;;-144.65;88.71
5146;BME280;2591;48.144;15.152;2023-02-26T10:32:54;76467.66;;;-144.65;89.03
5146;BME280;2591;48.144;15.152;2023-02-26T10:35:28;76486.00;;;-144.65;88.58
5146;BME280;2591;48.144;15.152;2023-02-26T10:38:01;76502.31;;;-144.65;89.06
5146;BME280;2591;48.144;15.152;2023-02-26T10:40:33;76510.47;;;-144.65;90.55
5146;BME280;2591;48.144;15.152;2023-02-26T10:43:08;76528.81;;;-144.65;90.54
5146;BME280;2591;48.144;15.152;2023-02-26T10:45:46;76510.47;;;-144.65;91.39
5146;BME280;2591;48.144;15.152;2023-02-26T10:48:29;76530.84;;;-144.65;90.16
5146;BME280;2591;48.144;15.152;2023-02-26T10:51:09;76508.44;;;-144.65;91.15
5146;BME280;2591;48.144;15.152;2023-02-26T10:53:42;76486.00;;;-144.65;91.17
5146;BME280;2591;48.144;15.152;2023-02-26T10:56:15;76437.06;;;-144.65;91.65
5146;BME280;2591;48.144;15.152;2023-02-26T10:58:44;76424.84;;;-144.65;88.54
5146;BME280;2591;48.144;15.152;2023-02-26T11:01:15;76418.72;;;-144.65;85.79
5146;BME280;2591;48.144;15.152;2023-02-26T11:03:45;76445.22;;;-144.65;84.32
5146;BME280;2591;48.144;15.152;2023-02-26T11:06:18;76461.53;;;-144.65;84.99
5146;BME280;2591;48.144;15.152;2023-02-26T11:08:49;76498.22;;;-144.65;83.58
5146;BME280;2591;48.144;15.152;2023-02-26T11:11:38;76559.41;;;-144.65;81.56
5146;BME280;2591;48.144;15.152;2023-02-26T11:14:07;76571.63;;;-144.65;81.33
5146;BME280;2591;48.144;15.152;2023-02-26T11:16:41;76559.41;;;-144.65;82.70
5146;BME280;2591;48.144;15.152;2023-02-26T11:19:12;76514.53;;;-144.65;84.72
5146;BME280;2591;48.144;15.152;2023-02-26T11:21:45;76506.38;;;-144.65;85.16
5146;BME280;2591;48.144;15.152;2023-02-26T11:24:18;76494.16;;;-144.65;85.95
5146;BME280;2591;48.144;15.152;2023-02-26T11:26:49;76469.69;;;-144.65;86.84
5146;BME280;2591;48.144;15.152;2023-02-26T11:29:19;76469.69;;;-144.65;86.69
5146;BME280;2591;48.144;15.152;2023-02-26T11:31:49;76486.00;;;-144.65;85.72
5146;BME280;2591;48.144;15.152;2023-02-26T11:34:21;76510.47;;;-144.65;85.17
5146;BME280;2591;48.144;15.152;2023-02-26T11:36:55;76541.06;;;-144.65;84.13
5146;BME280;2591;48.144;15.152;2023-02-26T11:39:25;76543.09;;;-144.65;85.81
5146;BME280;2591;48.144;15.152;2023-02-26T11:41:56;76579.78;;;-144.65;84.68
5146;BME280;2591;48.144;15.152;2023-02-26T11:44:33;76600.19;;;-144.65;84.83
5146;BME280;2591;48.144;15.152;2023-02-26T11:47:08;76608.34;;;-144.65;87.75
5146;BME280;2591;48.144;15.152;2023-02-26T11:49:40;76604.28;;;-144.65;88.99
5146;BME280;2591;48.144;15.152;2023-02-26T11:52:20;76596.09;;;-144.65;86.92
5146;BME280;2591;48.144;15.152;2023-02-26T11:54:50;76557.38;;;-144.65;86.08
5146;BME280;2591;48.144;15.152;2023-02-26T11:57:23;76528.81;;;-144.65;85.47
5146;BME280;2591;48.144;15.152;2023-02-26T11:59:54;76479.88;;;-144.65;87.05
5146;BME280;2591;48.144;15.152;2023-02-26T12:02:24;76457.44;;;-144.65;85.77
5146;BME280;2591;48.144;15.152;2023-02-26T12:04:56;76428.91;;;-144.65;83.98
5146;BME280;2591;48.144;15.152;2023-02-26T12:07:29;76410.56;;;-144.65;82.50
5146;BME280;2591;48.144;15.152;2023-02-26T12:09:57;76386.09;;;-144.65;82.79
5146;BME280;2591;48.144;15.152;2023-02-26T12:12:37;76441.16;;;-144.65;76.25
5146;BME280;2591;48.144;15.152;2023-02-26T12:15:20;76461.53;;;-144.65;75.24
5146;BME280;2591;48.144;15.152;2023-02-26T12:18:02;76459.50;;;-144.65;74.22
5146;BME280;2591;48.144;15.152;2023-02-26T12:20:41;76449.28;;;-144.65;73.84
5146;BME280;2591;48.144;15.152;2023-02-26T12:23:26;76437.06;;;-144.65;72.60
5146;BME280;2591;48.144;15.152;2023-02-26T12:26:04;76412.59;;;-144.65;67.63
5146;BME280;2591;48.144;15.152;2023-02-26T12:28:54;76412.59;;;-144.65;67.37
5146;BME280;2591;48.144;15.152;2023-02-26T12:31:43;76384.06;;;-144.65;67.52
5146;BME280;2591;48.144;15.152;2023-02-26T12:34:24;76347.34;;;-144.65;64.45
5146;BME280;2591;48.144;15.152;2023-02-26T12:37:13;76320.84;;;-144.65;65.10
5146;BME280;2591;48.144;15.152;2023-02-26T12:39:55;76294.34;;;-144.65;62.68
5146;BME280;2591;48.144;15.152;2023-02-26T12:42:32;76318.81;;;-144.65;62.11
5146;BME280;2591;48.144;15.152;2023-02-26T12:45:14;76428.91;;;-144.65;65.36
5146;BME280;2591;48.144;15.152;2023-02-26T12:47:54;76534.94;;;-144.65;70.38
5146;BME280;2591;48.144;15.152;2023-02-26T12:50:36;76539.00;;;-144.65;72.94
5146;BME280;2591;48.144;15.152;2023-02-26T12:53:25;76563.47;;;-144.65;69.45
5146;BME280;2591;48.144;15.152;2023-02-26T12:56:13;76575.72;;;-144.65;67.76
5146;BME280;2591;48.144;15.152;2023-02-26T12:59:06;76590.00;;;-144.65;67.59
5146;BME280;2591;48.144;15.152;2023-02-26T13:01:48;76600.19;;;-144.65;67.21
5146;BME280;2591;48.144;15.152;2023-02-26T13:07:39;76612.41;;;-144.65;67.54
5146;BME280;2591;48.144;15.152;2023-02-26T13:10:21;76587.94;;;-144.65;67.38
5146;BME280;2591;48.144;15.152;2023-02-26T13:13:05;76555.31;;;-144.65;66.06
5146;BME280;2591;48.144;15.152;2023-02-26T13:15:47;76530.84;;;-144.65;67.20